sensor_id;sensor_type;location;lat;lon;timestamp;temperature;humidity
33476;DHT22;19814;48.224;11.422;2023-08-20T00:01:22;21.30;99.90
33476;DHT22;19814;48.224;11.422;2023-08-20T00:03:49;21.30;99.90
33476;DHT22;19814;48.224;11.422;2023-08-20T00:06:15;21.30;99.90
33476;DHT22;19814;48.224;11.422;2023-08-20T00:08:41;21.30;99.90
33476;DHT22;19814;48.224;11.422;2023-08-20T00:11:06;21.30;99.90
33476;DHT22;19814;48.224;11.422;2023-08-20T00:13:32;21.30;99.90
33476;DHT22;19814;48.224;11.422;2023-08-20T00:15:57;21.30;99.90
33476;DHT22;19814;48.224;11.422;2023-08-20T00:18:23;21.30;99.90
33476;DHT22;19814;48.224;11.422;2023-08-20T00:20:49;21.30;99.90
33476;DHT22;19814;48.224;11.422;2023-08-20T00:23:15;21.40;99.90
33476;DHT22;19814;48.224;11.422;2023-08-20T00:25:40;21.40;99.90
33476;DHT22;19814;48.224;11.422;2023-08-20T00:28:06;21.30;99.90
33476;DHT22;19814;48.224;11.422;2023-08-20T00:30:32;21.30;99.90
33476;DHT22;19814;48.224;11.422;2023-08-20T00:32:57;21.30;99.90
33476;DHT22;19814;48.224;11.422;2023-08-20T00:35:23;21.20;99.90
33476;DHT22;19814;48.224;11.422;2023-08-20T00:37:48;21.10;99.90
33476;DHT22;19814;48.224;11.422;2023-08-20T00:40:14;21.10;99.90
33476;DHT22;19814;48.224;11.422;2023-08-20T00:42:40;21.10;99.90
33476;DHT22;19814;48.224;11.422;2023-08-20T00:45:05;21.10;99.90
33476;DHT22;19814;48.224;11.422;2023-08-20T00:47:31;21.10;99.90
33476;DHT22;19814;48.224;11.422;2023-08-20T00:49:57;21.10;99.90
33476;DHT22;19814;48.224;11.422;2023-08-20T00:52:22;21.10;99.90
33476;DHT22;19814;48.224;11.422;2023-08-20T00:54:49;21.00;99.90
33476;DHT22;19814;48.224;11.422;2023-08-20T00:57:15;21.00;99.90
33476;DHT22;19814;48.224;11.422;2023-08-20T00:59:43;21.00;99.90
33476;DHT22;19814;48.224;11.422;2023-08-20T01:02:10;21.00;99.90
33476;DHT22;19814;48.224;11.422;2023-08-20T01:04:36;21.00;99.90
33476;DHT22;19814;48.224;11.422;2023-08-20T01:07:14;20.90;99.90
33476;DHT22;19814;48.224;11.422;2023-08-20T01:12:31;20.80;99.90
33476;DHT22;19814;48.224;11.422;2023-08-20T01:14:56;20.80;99.90
33476;DHT22;19814;48.224;11.422;2023-08-20T01:17:22;20.80;99.90
33476;DHT22;19814;48.224;11.422;2023-08-20T01:19:48;20.80;99.90
33476;DHT22;19814;48.224;11.422;2023-08-20T01:28:24;20.70;99.90
33476;DHT22;19814;48.224;11.422;2023-08-20T01:30:50;20.60;99.90
33476;DHT22;19814;48.224;11.422;2023-08-20T01:33:17;20.60;99.90
33476;DHT22;19814;48.224;11.422;2023-08-20T01:35:44;20.60;99.90
33476;DHT22;19814;48.224;11.422;2023-08-20T01:38:09;20.50;99.90
33476;DHT22;19814;48.224;11.422;2023-08-20T01:40:35;20.50;99.90
33476;DHT22;19814;48.224;11.422;2023-08-20T01:43:00;20.40;99.90
33476;DHT22;19814;48.224;11.422;2023-08-20T01:45:26;20.50;99.90
33476;DHT22;19814;48.224;11.422;2023-08-20T01:47:52;20.40;99.90
33476;DHT22;19814;48.224;11.422;2023-08-20T01:50:17;20.40;99.90
33476;DHT22;19814;48.224;11.422;2023-08-20T01:52:43;20.40;99.90
33476;DHT22;19814;48.224;11.422;2023-08-20T01:55:09;20.40;99.90
33476;DHT22;19814;48.224;11.422;2023-08-20T01:57:34;20.30;99.90
33476;DHT22;19814;48.224;11.422;2023-08-20T02:00:00;20.30;99.90
33476;DHT22;19814;48.224;11.422;2023-08-20T02:02:25;20.20;99.90
33476;DHT22;19814;48.224;11.422;2023-08-20T02:04:51;20.20;99.90
33476;DHT22;19814;48.224;11.422;2023-08-20T02:07:16;20.20;99.90
33476;DHT22;19814;48.224;11.422;2023-08-20T02:09:42;20.20;99.90
33476;DHT22;19814;48.224;11.422;2023-08-20T02:12:08;20.10;99.90
33476;DHT22;19814;48.224;11.422;2023-08-20T02:14:34;20.10;99.90
33476;DHT22;19814;48.224;11.422;2023-08-20T02:17:01;20.10;99.90
33476;DHT22;19814;48.224;11.422;2023-08-20T02:19:27;20.00;99.90
33476;DHT22;19814;48.224;11.422;2023-08-20T02:21:53;20.00;99.90
33476;DHT22;19814;48.224;11.422;2023-08-20T02:24:19;20.00;99.90
33476;DHT22;19814;48.224;11.422;2023-08-20T02:26:44;20.00;99.90
33476;DHT22;19814;48.224;11.422;2023-08-20T02:29:10;20.00;99.90
33476;DHT22;19814;48.224;11.422;2023-08-20T02:31:35;19.90;99.90
33476;DHT22;19814;48.224;11.422;2023-08-20T02:34:01;19.90;99.90
33476;DHT22;19814;48.224;11.422;2023-08-20T02:36:27;19.90;99.90
33476;DHT22;19814;48.224;11.422;2023-08-20T02:38:52;19.80;99.90
33476;DHT22;19814;48.224;11.422;2023-08-20T02:41:18;19.80;99.90
33476;DHT22;19814;48.224;11.422;2023-08-20T02:43:44;19.80;99.90
33476;DHT22;19814;48.224;11.422;2023-08-20T02:46:10;19.70;99.90
33476;DHT22;19814;48.224;11.422;2023-08-20T02:48:35;19.70;99.90
33476;DHT22;19814;48.224;11.422;2023-08-20T02:51:01;19.70;99.90
33476;DHT22;19814;48.224;11.422;2023-08-20T02:53:26;19.70;99.90
33476;DHT22;19814;48.224;11.422;2023-08-20T02:55:52;19.70;99.90
33476;DHT22;19814;48.224;11.422;2023-08-20T02:58:17;19.60;99.90
33476;DHT22;19814;48.224;11.422;2023-08-20T03:00:43;19.70;99.90
33476;DHT22;19814;48.224;11.422;2023-08-20T03:03:10;19.60;99.90
33476;DHT22;19814;48.224;11.422;2023-08-20T03:05:36;19.60;99.90
33476;DHT22;19814;48.224;11.422;2023-08-20T03:08:02;19.60;99.90
33476;DHT22;19814;48.224;11.422;2023-08-20T03:10:29;19.60;99.90
33476;DHT22;19814;48.224;11.422;2023-08-20T03:12:55;19.60;99.90
33476;DHT22;19814;48.224;11.422;2023-08-20T03:15:20;19.60;99.90
33476;DHT22;19814;48.224;11.422;2023-08-20T03:17:46;19.50;99.90
33476;DHT22;19814;48.224;11.422;2023-08-20T03:20:12;19.50;99.90
33476;DHT22;19814;48.224;11.422;2023-08-20T03:22:38;19.40;99.90
33476;DHT22;19814;48.224;11.422;2023-08-20T03:25:04;19.30;99.90
33476;DHT22;19814;48.224;11.422;2023-08-20T03:27:30;19.30;99.90
33476;DHT22;19814;48.224;11.422;2023-08-20T03:29:56;19.20;99.90
33476;DHT22;19814;48.224;11.422;2023-08-20T03:32:22;19.10;99.90
33476;DHT22;19814;48.224;11.422;2023-08-20T03:34:47;19.00;99.90
33476;DHT22;19814;48.224;11.422;2023-08-20T03:37:13;19.00;99.90
33476;DHT22;19814;48.224;11.422;2023-08-20T03:39:38;19.00;99.90
33476;DHT22;19814;48.224;11.422;2023-08-20T03:42:04;19.00;99.90
33476;DHT22;19814;48.224;11.422;2023-08-20T03:44:30;18.90;99.90
33476;DHT22;19814;48.224;11.422;2023-08-20T03:46:56;18.90;99.90
33476;DHT22;19814;48.224;11.422;2023-08-20T03:49:21;18.90;99.90
33476;DHT22;19814;48.224;11.422;2023-08-20T03:51:47;18.80;99.90
33476;DHT22;19814;48.224;11.422;2023-08-20T03:54:13;18.80;99.90
33476;DHT22;19814;48.224;11.422;2023-08-20T03:56:39;18.70;99.90
33476;DHT22;19814;48.224;11.422;2023-08-20T03:59:04;18.70;99.90
33476;DHT22;19814;48.224;11.422;2023-08-20T04:01:30;18.70;99.90
33476;DHT22;19814;48.224;11.422;2023-08-20T04:03:55;18.80;99.90
33476;DHT22;19814;48.224;11.422;2023-08-20T04:06:21;18.80;99.90
33476;DHT22;19814;48.224;11.422;2023-08-20T04:08:46;18.80;99.90
33476;DHT22;19814;48.224;11.422;2023-08-20T04:11:12;18.80;99.90
33476;DHT22;19814;48.224;11.422;2023-08-20T04:13:37;18.70;99.90
33476;DHT22;19814;48.224;11.422;2023-08-20T04:16:05;18.70;99.90
33476;DHT22;19814;48.224;11.422;2023-08-20T04:18:30;18.60;99.90
33476;DHT22;19814;48.224;11.422;2023-08-20T04:20:56;18.60;99.90
33476;DHT22;19814;48.224;11.422;2023-08-20T04:23:23;18.60;99.90
33476;DHT22;19814;48.224;11.422;2023-08-20T04:25:48;18.60;99.90
33476;DHT22;19814;48.224;11.422;2023-08-20T04:28:14;18.60;99.90
33476;DHT22;19814;48.224;11.422;2023-08-20T04:30:39;18.60;99.90
33476;DHT22;19814;48.224;11.422;2023-08-20T04:33:05;18.60;99.90
33476;DHT22;19814;48.224;11.422;2023-08-20T04:35:31;18.60;99.90
33476;DHT22;19814;48.224;11.422;2023-08-20T04:37:57;18.60;99.90
33476;DHT22;19814;48.224;11.422;2023-08-20T04:40:22;18.50;99.90
33476;DHT22;19814;48.224;11.422;2023-08-20T04:42:48;18.50;99.90
33476;DHT22;19814;48.224;11.422;2023-08-20T04:45:14;18.50;99.90
33476;DHT22;19814;48.224;11.422;2023-08-20T04:47:42;18.40;99.90
33476;DHT22;19814;48.224;11.422;2023-08-20T04:50:08;18.40;99.90
33476;DHT22;19814;48.224;11.422;2023-08-20T04:52:34;18.40;99.90
33476;DHT22;19814;48.224;11.422;2023-08-20T04:55:00;18.40;99.90
33476;DHT22;19814;48.224;11.422;2023-08-20T04:57:26;18.50;99.90
33476;DHT22;19814;48.224;11.422;2023-08-20T04:59:51;18.50;99.90
33476;DHT22;19814;48.224;11.422;2023-08-20T05:02:17;18.60;99.90
33476;DHT22;19814;48.224;11.422;2023-08-20T05:04:42;18.60;99.90
33476;DHT22;19814;48.224;11.422;2023-08-20T05:07:08;18.60;99.90
33476;DHT22;19814;48.224;11.422;2023-08-20T05:09:34;18.50;99.90
33476;DHT22;19814;48.224;11.422;2023-08-20T05:11:59;18.60;99.90
33476;DHT22;19814;48.224;11.422;2023-08-20T05:14:25;18.60;99.90
33476;DHT22;19814;48.224;11.422;2023-08-20T05:16:51;18.60;99.90
33476;DHT22;19814;48.224;11.422;2023-08-20T05:19:16;18.60;99.90
33476;DHT22;19814;48.224;11.422;2023-08-20T05:21:42;18.70;99.90
33476;DHT22;19814;48.224;11.422;2023-08-20T05:24:07;18.80;99.90
33476;DHT22;19814;48.224;11.422;2023-08-20T05:26:34;18.80;99.90
33476;DHT22;19814;48.224;11.422;2023-08-20T05:29:00;19.00;99.90
33476;DHT22;19814;48.224;11.422;2023-08-20T05:31:25;19.10;99.90
33476;DHT22;19814;48.224;11.422;2023-08-20T05:33:51;19.20;99.90
33476;DHT22;19814;48.224;11.422;2023-08-20T05:36:16;19.30;99.90
33476;DHT22;19814;48.224;11.422;2023-08-20T05:38:42;19.40;99.90
33476;DHT22;19814;48.224;11.422;2023-08-20T05:41:08;19.60;99.90
33476;DHT22;19814;48.224;11.422;2023-08-20T05:43:34;19.80;99.90
33476;DHT22;19814;48.224;11.422;2023-08-20T05:46:02;19.90;99.90
33476;DHT22;19814;48.224;11.422;2023-08-20T05:48:27;20.10;99.90
33476;DHT22;19814;48.224;11.422;2023-08-20T05:50:53;20.30;99.90
33476;DHT22;19814;48.224;11.422;2023-08-20T05:53:18;20.40;99.90
33476;DHT22;19814;48.224;11.422;2023-08-20T05:55:44;20.60;99.90
33476;DHT22;19814;48.224;11.422;2023-08-20T05:58:09;20.70;99.90
33476;DHT22;19814;48.224;11.422;2023-08-20T06:00:35;20.80;99.90
33476;DHT22;19814;48.224;11.422;2023-08-20T06:03:00;21.00;99.90
33476;DHT22;19814;48.224;11.422;2023-08-20T06:05:26;21.10;99.90
33476;DHT22;19814;48.224;11.422;2023-08-20T06:07:51;21.30;99.90
33476;DHT22;19814;48.224;11.422;2023-08-20T06:10:17;21.40;99.90
33476;DHT22;19814;48.224;11.422;2023-08-20T06:12:42;21.60;99.90
33476;DHT22;19814;48.224;11.422;2023-08-20T06:15:08;21.70;99.90
33476;DHT22;19814;48.224;11.422;2023-08-20T06:17:34;21.90;99.90
33476;DHT22;19814;48.224;11.422;2023-08-20T06:19:59;21.90;99.90
33476;DHT22;19814;48.224;11.422;2023-08-20T06:22:25;21.90;99.90
33476;DHT22;19814;48.224;11.422;2023-08-20T06:24:50;21.90;99.90
33476;DHT22;19814;48.224;11.422;2023-08-20T06:27:16;22.00;99.90
33476;DHT22;19814;48.224;11.422;2023-08-20T06:29:41;22.10;99.90
33476;DHT22;19814;48.224;11.422;2023-08-20T06:32:07;22.20;99.90
33476;DHT22;19814;48.224;11.422;2023-08-20T06:34:34;22.20;99.90
33476;DHT22;19814;48.224;11.422;2023-08-20T06:37:00;22.30;99.90
33476;DHT22;19814;48.224;11.422;2023-08-20T06:39:25;22.40;99.90
33476;DHT22;19814;48.224;11.422;2023-08-20T06:41:51;22.60;99.90
33476;DHT22;19814;48.224;11.422;2023-08-20T06:44:16;22.70;99.90
33476;DHT22;19814;48.224;11.422;2023-08-20T06:46:42;22.90;99.90
33476;DHT22;19814;48.224;11.422;2023-08-20T06:49:08;23.00;99.90
33476;DHT22;19814;48.224;11.422;2023-08-20T06:51:33;23.20;99.90
33476;DHT22;19814;48.224;11.422;2023-08-20T06:53:59;23.40;99.90
33476;DHT22;19814;48.224;11.422;2023-08-20T06:56:24;23.50;99.90
33476;DHT22;19814;48.224;11.422;2023-08-20T06:58:50;23.60;99.90
33476;DHT22;19814;48.224;11.422;2023-08-20T07:01:16;23.80;99.90
33476;DHT22;19814;48.224;11.422;2023-08-20T07:03:43;23.90;99.90
33476;DHT22;19814;48.224;11.422;2023-08-20T07:06:10;24.10;99.90
33476;DHT22;19814;48.224;11.422;2023-08-20T07:08:37;24.30;99.90
33476;DHT22;19814;48.224;11.422;2023-08-20T07:11:04;24.60;99.90
33476;DHT22;19814;48.224;11.422;2023-08-20T07:13:30;24.90;99.90
33476;DHT22;19814;48.224;11.422;2023-08-20T07:15:55;25.10;99.90
33476;DHT22;19814;48.224;11.422;2023-08-20T07:18:21;25.30;99.90
33476;DHT22;19814;48.224;11.422;2023-08-20T07:20:46;25.40;99.90
33476;DHT22;19814;48.224;11.422;2023-08-20T07:23:12;25.30;99.90
33476;DHT22;19814;48.224;11.422;2023-08-20T07:25:39;25.30;99.90
33476;DHT22;19814;48.224;11.422;2023-08-20T07:28:05;25.30;99.30
33476;DHT22;19814;48.224;11.422;2023-08-20T07:30:31;25.40;99.90
33476;DHT22;19814;48.224;11.422;2023-08-20T07:32:57;25.70;99.90
33476;DHT22;19814;48.224;11.422;2023-08-20T07:35:23;25.90;98.80
33476;DHT22;19814;48.224;11.422;2023-08-20T07:37:49;25.80;97.70
33476;DHT22;19814;48.224;11.422;2023-08-20T07:40:14;26.00;98.40
33476;DHT22;19814;48.224;11.422;2023-08-20T07:42:40;26.20;99.80
33476;DHT22;19814;48.224;11.422;2023-08-20T07:45:07;26.40;99.60
33476;DHT22;19814;48.224;11.422;2023-08-20T07:47:36;26.60;99.00
33476;DHT22;19814;48.224;11.422;2023-08-20T07:50:02;26.80;98.00
33476;DHT22;19814;48.224;11.422;2023-08-20T07:52:28;27.00;99.20
33476;DHT22;19814;48.224;11.422;2023-08-20T07:54:54;27.30;96.90
33476;DHT22;19814;48.224;11.422;2023-08-20T07:57:19;27.50;98.50
33476;DHT22;19814;48.224;11.422;2023-08-20T07:59:45;27.80;99.00
33476;DHT22;19814;48.224;11.422;2023-08-20T08:02:10;28.20;99.00
33476;DHT22;19814;48.224;11.422;2023-08-20T08:04:36;28.40;95.90
33476;DHT22;19814;48.224;11.422;2023-08-20T08:07:02;28.50;96.90
33476;DHT22;19814;48.224;11.422;2023-08-20T08:09:31;28.60;94.80
33476;DHT22;19814;48.224;11.422;2023-08-20T08:11:58;28.60;95.40
33476;DHT22;19814;48.224;11.422;2023-08-20T08:14:24;28.80;92.90
33476;DHT22;19814;48.224;11.422;2023-08-20T08:16:49;28.80;95.50
33476;DHT22;19814;48.224;11.422;2023-08-20T08:19:16;29.00;95.30
33476;DHT22;19814;48.224;11.422;2023-08-20T08:21:42;29.00;91.60
33476;DHT22;19814;48.224;11.422;2023-08-20T08:24:08;29.20;94.20
33476;DHT22;19814;48.224;11.422;2023-08-20T08:26:34;29.20;92.10
33476;DHT22;19814;48.224;11.422;2023-08-20T08:29:04;29.40;94.50
33476;DHT22;19814;48.224;11.422;2023-08-20T08:31:30;29.70;92.90
33476;DHT22;19814;48.224;11.422;2023-08-20T08:33:55;30.00;92.90
33476;DHT22;19814;48.224;11.422;2023-08-20T08:36:21;30.00;90.60
33476;DHT22;19814;48.224;11.422;2023-08-20T08:38:46;30.20;91.90
33476;DHT22;19814;48.224;11.422;2023-08-20T08:41:13;30.50;92.60
33476;DHT22;19814;48.224;11.422;2023-08-20T08:43:40;30.70;89.70
33476;DHT22;19814;48.224;11.422;2023-08-20T08:46:07;30.70;90.00
33476;DHT22;19814;48.224;11.422;2023-08-20T08:48:36;30.80;91.30
33476;DHT22;19814;48.224;11.422;2023-08-20T08:51:02;31.20;92.10
33476;DHT22;19814;48.224;11.422;2023-08-20T08:53:27;31.50;91.30
33476;DHT22;19814;48.224;11.422;2023-08-20T08:55:56;31.80;89.70
33476;DHT22;19814;48.224;11.422;2023-08-20T08:58:21;31.60;85.10
33476;DHT22;19814;48.224;11.422;2023-08-20T09:00:47;31.80;85.50
33476;DHT22;19814;48.224;11.422;2023-08-20T09:03:13;32.10;87.50
33476;DHT22;19814;48.224;11.422;2023-08-20T09:05:46;32.10;83.10
33476;DHT22;19814;48.224;11.422;2023-08-20T09:08:29;31.90;79.40
33476;DHT22;19814;48.224;11.422;2023-08-20T09:10:56;31.80;84.40
33476;DHT22;19814;48.224;11.422;2023-08-20T09:13:26;32.10;84.00
33476;DHT22;19814;48.224;11.422;2023-08-20T09:15:52;31.90;84.30
33476;DHT22;19814;48.224;11.422;2023-08-20T09:18:18;32.20;86.40
33476;DHT22;19814;48.224;11.422;2023-08-20T09:20:44;32.70;85.60
33476;DHT22;19814;48.224;11.422;2023-08-20T09:23:13;32.80;73.80
33476;DHT22;19814;48.224;11.422;2023-08-20T09:25:39;32.90;77.80
33476;DHT22;19814;48.224;11.422;2023-08-20T09:28:05;32.80;77.80
33476;DHT22;19814;48.224;11.422;2023-08-20T09:30:31;33.00;74.60
33476;DHT22;19814;48.224;11.422;2023-08-20T09:33:23;33.20;71.90
33476;DHT22;19814;48.224;11.422;2023-08-20T09:35:50;33.30;68.90
33476;DHT22;19814;48.224;11.422;2023-08-20T09:38:19;33.40;71.20
33476;DHT22;19814;48.224;11.422;2023-08-20T09:40:49;33.80;78.60
33476;DHT22;19814;48.224;11.422;2023-08-20T09:43:16;33.90;70.00
33476;DHT22;19814;48.224;11.422;2023-08-20T09:45:42;33.80;70.00
33476;DHT22;19814;48.224;11.422;2023-08-20T09:48:09;34.10;72.30
33476;DHT22;19814;48.224;11.422;2023-08-20T09:50:36;34.60;75.20
33476;DHT22;19814;48.224;11.422;2023-08-20T09:53:26;34.90;68.40
33476;DHT22;19814;48.224;11.422;2023-08-20T09:55:52;35.00;69.50
33476;DHT22;19814;48.224;11.422;2023-08-20T09:58:20;35.20;67.80
33476;DHT22;19814;48.224;11.422;2023-08-20T10:00:51;35.50;70.80
33476;DHT22;19814;48.224;11.422;2023-08-20T10:03:18;35.70;66.90
33476;DHT22;19814;48.224;11.422;2023-08-20T10:05:46;35.20;64.30
33476;DHT22;19814;48.224;11.422;2023-08-20T10:08:14;35.40;68.20
33476;DHT22;19814;48.224;11.422;2023-08-20T10:10:40;35.40;66.10
33476;DHT22;19814;48.224;11.422;2023-08-20T10:13:06;35.70;68.80
33476;DHT22;19814;48.224;11.422;2023-08-20T10:15:32;35.70;59.80
33476;DHT22;19814;48.224;11.422;2023-08-20T10:18:00;35.80;61.60
33476;DHT22;19814;48.224;11.422;2023-08-20T10:20:29;35.70;62.80
33476;DHT22;19814;48.224;11.422;2023-08-20T10:23:00;35.70;60.60
33476;DHT22;19814;48.224;11.422;2023-08-20T10:25:26;35.70;57.40
33476;DHT22;19814;48.224;11.422;2023-08-20T10:27:52;35.80;60.00
33476;DHT22;19814;48.224;11.422;2023-08-20T10:30:22;36.20;57.80
33476;DHT22;19814;48.224;11.422;2023-08-20T10:32:56;36.60;61.90
33476;DHT22;19814;48.224;11.422;2023-08-20T10:35:50;36.50;59.90
33476;DHT22;19814;48.224;11.422;2023-08-20T10:38:16;36.70;58.70
33476;DHT22;19814;48.224;11.422;2023-08-20T10:40:55;37.10;60.80
33476;DHT22;19814;48.224;11.422;2023-08-20T10:43:28;37.30;53.80
33476;DHT22;19814;48.224;11.422;2023-08-20T10:48:29;36.80;58.00
33476;DHT22;19814;48.224;11.422;2023-08-20T10:50:56;36.00;59.00
33476;DHT22;19814;48.224;11.422;2023-08-20T10:53:22;36.00;61.40
33476;DHT22;19814;48.224;11.422;2023-08-20T10:55:48;36.50;59.20
33476;DHT22;19814;48.224;11.422;2023-08-20T10:58:15;36.90;60.00
33476;DHT22;19814;48.224;11.422;2023-08-20T11:00:41;37.10;58.60
33476;DHT22;19814;48.224;11.422;2023-08-20T11:03:07;37.30;53.10
33476;DHT22;19814;48.224;11.422;2023-08-20T11:05:33;37.30;55.90
33476;DHT22;19814;48.224;11.422;2023-08-20T11:08:00;37.50;56.20
33476;DHT22;19814;48.224;11.422;2023-08-20T11:10:26;37.00;52.30
33476;DHT22;19814;48.224;11.422;2023-08-20T11:12:51;36.40;54.20
33476;DHT22;19814;48.224;11.422;2023-08-20T11:15:17;36.60;57.20
33476;DHT22;19814;48.224;11.422;2023-08-20T11:17:46;36.50;53.80
33476;DHT22;19814;48.224;11.422;2023-08-20T11:20:14;36.10;56.00
33476;DHT22;19814;48.224;11.422;2023-08-20T11:22:40;35.80;54.40
33476;DHT22;19814;48.224;11.422;2023-08-20T11:25:10;35.50;56.90
33476;DHT22;19814;48.224;11.422;2023-08-20T11:27:36;35.80;54.00
33476;DHT22;19814;48.224;11.422;2023-08-20T11:30:05;36.00;57.80
33476;DHT22;19814;48.224;11.422;2023-08-20T11:32:31;36.10;54.60
33476;DHT22;19814;48.224;11.422;2023-08-20T11:34:57;35.90;52.60
33476;DHT22;19814;48.224;11.422;2023-08-20T11:37:22;35.90;55.20
33476;DHT22;19814;48.224;11.422;2023-08-20T11:39:49;36.20;55.70
33476;DHT22;19814;48.224;11.422;2023-08-20T11:42:15;36.30;53.70
33476;DHT22;19814;48.224;11.422;2023-08-20T11:44:46;36.40;55.50
33476;DHT22;19814;48.224;11.422;2023-08-20T11:47:16;36.20;53.70
33476;DHT22;19814;48.224;11.422;2023-08-20T11:49:41;36.10;53.10
33476;DHT22;19814;48.224;11.422;2023-08-20T11:52:07;36.40;57.10
33476;DHT22;19814;48.224;11.422;2023-08-20T11:54:33;37.00;58.50
33476;DHT22;19814;48.224;11.422;2023-08-20T11:57:03;37.40;50.70
33476;DHT22;19814;48.224;11.422;2023-08-20T11:59:29;37.20;52.80
33476;DHT22;19814;48.224;11.422;2023-08-20T12:01:59;38.00;58.60
33476;DHT22;19814;48.224;11.422;2023-08-20T12:04:31;39.00;51.30
33476;DHT22;19814;48.224;11.422;2023-08-20T12:07:13;38.00;50.70
33476;DHT22;19814;48.224;11.422;2023-08-20T12:09:39;38.70;51.60
33476;DHT22;19814;48.224;11.422;2023-08-20T12:12:06;39.40;51.70
33476;DHT22;19814;48.224;11.422;2023-08-20T12:14:32;39.70;50.60
33476;DHT22;19814;48.224;11.422;2023-08-20T12:16:57;39.80;48.00
33476;DHT22;19814;48.224;11.422;2023-08-20T12:19:24;39.90;47.50
33476;DHT22;19814;48.224;11.422;2023-08-20T12:21:49;39.30;49.60
33476;DHT22;19814;48.224;11.422;2023-08-20T12:24:15;39.70;48.70
33476;DHT22;19814;48.224;11.422;2023-08-20T12:26:41;38.00;48.70
33476;DHT22;19814;48.224;11.422;2023-08-20T12:29:07;37.50;49.40
33476;DHT22;19814;48.224;11.422;2023-08-20T12:31:33;37.10;51.10
33476;DHT22;19814;48.224;11.422;2023-08-20T12:33:59;36.80;50.70
33476;DHT22;19814;48.224;11.422;2023-08-20T12:36:25;35.60;51.00
33476;DHT22;19814;48.224;11.422;2023-08-20T12:38:50;35.40;53.20
33476;DHT22;19814;48.224;11.422;2023-08-20T12:41:16;35.50;53.10
33476;DHT22;19814;48.224;11.422;2023-08-20T12:43:41;35.40;50.80
33476;DHT22;19814;48.224;11.422;2023-08-20T12:46:07;35.00;53.00
33476;DHT22;19814;48.224;11.422;2023-08-20T12:48:33;34.80;51.30
33476;DHT22;19814;48.224;11.422;2023-08-20T12:50:58;34.70;52.80
33476;DHT22;19814;48.224;11.422;2023-08-20T12:53:24;34.70;52.90
33476;DHT22;19814;48.224;11.422;2023-08-20T12:55:50;35.00;52.80
33476;DHT22;19814;48.224;11.422;2023-08-20T12:58:15;35.10;53.80
33476;DHT22;19814;48.224;11.422;2023-08-20T13:00:41;35.00;52.50
33476;DHT22;19814;48.224;11.422;2023-08-20T13:03:07;34.70;51.80
33476;DHT22;19814;48.224;11.422;2023-08-20T13:05:33;34.40;53.10
33476;DHT22;19814;48.224;11.422;2023-08-20T13:07:58;34.50;54.60
33476;DHT22;19814;48.224;11.422;2023-08-20T13:10:24;34.70;55.60
33476;DHT22;19814;48.224;11.422;2023-08-20T13:12:52;34.40;53.70
33476;DHT22;19814;48.224;11.422;2023-08-20T13:15:20;34.40;58.50
33476;DHT22;19814;48.224;11.422;2023-08-20T13:17:48;34.40;53.40
33476;DHT22;19814;48.224;11.422;2023-08-20T13:20:15;34.30;52.30
33476;DHT22;19814;48.224;11.422;2023-08-20T13:22:41;34.00;54.40
33476;DHT22;19814;48.224;11.422;2023-08-20T13:25:07;34.00;56.70
33476;DHT22;19814;48.224;11.422;2023-08-20T13:27:33;33.90;54.30
33476;DHT22;19814;48.224;11.422;2023-08-20T13:29:58;34.00;56.60
33476;DHT22;19814;48.224;11.422;2023-08-20T13:32:24;34.10;56.10
33476;DHT22;19814;48.224;11.422;2023-08-20T13:34:50;34.00;52.90
33476;DHT22;19814;48.224;11.422;2023-08-20T13:37:16;33.80;52.60
33476;DHT22;19814;48.224;11.422;2023-08-20T13:39:42;33.60;51.90
33476;DHT22;19814;48.224;11.422;2023-08-20T13:42:08;33.60;55.30
33476;DHT22;19814;48.224;11.422;2023-08-20T13:44:33;33.80;56.40
33476;DHT22;19814;48.224;11.422;2023-08-20T13:46:59;33.90;54.10
33476;DHT22;19814;48.224;11.422;2023-08-20T13:49:25;33.80;55.60
33476;DHT22;19814;48.224;11.422;2023-08-20T13:51:50;33.70;52.50
33476;DHT22;19814;48.224;11.422;2023-08-20T13:54:16;33.50;53.90
33476;DHT22;19814;48.224;11.422;2023-08-20T13:56:42;33.60;52.40
33476;DHT22;19814;48.224;11.422;2023-08-20T13:59:09;33.40;52.70
33476;DHT22;19814;48.224;11.422;2023-08-20T14:01:34;33.40;53.40
33476;DHT22;19814;48.224;11.422;2023-08-20T14:04:00;33.40;53.30
33476;DHT22;19814;48.224;11.422;2023-08-20T14:06:26;33.30;52.90
33476;DHT22;19814;48.224;11.422;2023-08-20T14:08:51;33.20;53.50
33476;DHT22;19814;48.224;11.422;2023-08-20T14:11:17;33.20;56.50
33476;DHT22;19814;48.224;11.422;2023-08-20T14:13:42;33.20;54.60
33476;DHT22;19814;48.224;11.422;2023-08-20T14:16:08;33.00;54.20
33476;DHT22;19814;48.224;11.422;2023-08-20T14:18:33;32.90;57.20
33476;DHT22;19814;48.224;11.422;2023-08-20T14:20:59;33.00;54.20
33476;DHT22;19814;48.224;11.422;2023-08-20T14:23:25;33.00;55.20
33476;DHT22;19814;48.224;11.422;2023-08-20T14:25:50;32.90;55.50
33476;DHT22;19814;48.224;11.422;2023-08-20T14:28:16;32.90;52.50
33476;DHT22;19814;48.224;11.422;2023-08-20T14:30:41;33.00;55.90
33476;DHT22;19814;48.224;11.422;2023-08-20T14:33:07;33.00;52.50
33476;DHT22;19814;48.224;11.422;2023-08-20T14:35:32;32.90;54.00
33476;DHT22;19814;48.224;11.422;2023-08-20T14:37:58;32.80;53.20
33476;DHT22;19814;48.224;11.422;2023-08-20T14:40:24;32.80;54.50
33476;DHT22;19814;48.224;11.422;2023-08-20T14:42:50;32.80;55.30
33476;DHT22;19814;48.224;11.422;2023-08-20T14:45:15;32.80;53.90
33476;DHT22;19814;48.224;11.422;2023-08-20T14:47:41;32.80;56.70
33476;DHT22;19814;48.224;11.422;2023-08-20T14:50:07;32.80;53.20
33476;DHT22;19814;48.224;11.422;2023-08-20T14:52:34;32.60;54.90
33476;DHT22;19814;48.224;11.422;2023-08-20T14:55:00;32.60;55.90
33476;DHT22;19814;48.224;11.422;2023-08-20T14:57:26;32.60;56.50
33476;DHT22;19814;48.224;11.422;2023-08-20T14:59:51;32.60;57.10
33476;DHT22;19814;48.224;11.422;2023-08-20T15:02:17;32.60;56.80
33476;DHT22;19814;48.224;11.422;2023-08-20T15:04:43;32.60;56.50
33476;DHT22;19814;48.224;11.422;2023-08-20T15:07:08;32.50;56.00
33476;DHT22;19814;48.224;11.422;2023-08-20T15:09:34;32.50;55.80
33476;DHT22;19814;48.224;11.422;2023-08-20T15:12:00;32.50;57.80
33476;DHT22;19814;48.224;11.422;2023-08-20T15:14:26;32.50;56.60
33476;DHT22;19814;48.224;11.422;2023-08-20T15:16:51;32.50;56.80
33476;DHT22;19814;48.224;11.422;2023-08-20T15:19:17;32.40;58.60
33476;DHT22;19814;48.224;11.422;2023-08-20T15:21:42;32.40;57.80